sensor_id;sensor_type;location;lat;lon;timestamp;temperature;humidity
28438;DHT22;15667;52.376;9.708;2023-04-06T00:00:08;4.10;99.90
28438;DHT22;15667;52.376;9.708;2023-04-06T00:02:34;4.10;99.90
28438;DHT22;15667;52.376;9.708;2023-04-06T00:05:00;4.60;99.90
28438;DHT22;15667;52.376;9.708;2023-04-06T00:07:26;4.10;99.90
28438;DHT22;15667;52.376;9.708;2023-04-06T00:09:53;4.10;99.90
28438;DHT22;15667;52.376;9.708;2023-04-06T00:12:19;4.00;99.90
28438;DHT22;15667;52.376;9.708;2023-04-06T00:14:45;4.00;99.90
28438;DHT22;15667;52.376;9.708;2023-04-06T00:17:11;4.00;99.90
28438;DHT22;15667;52.376;9.708;2023-04-06T00:19:36;3.90;99.90
28438;DHT22;15667;52.376;9.708;2023-04-06T00:22:02;3.90;99.90
28438;DHT22;15667;52.376;9.708;2023-04-06T00:24:28;3.90;99.90
28438;DHT22;15667;52.376;9.708;2023-04-06T00:26:54;3.80;99.90
28438;DHT22;15667;52.376;9.708;2023-04-06T00:29:20;3.70;99.90
28438;DHT22;15667;52.376;9.708;2023-04-06T00:31:46;3.60;99.90
28438;DHT22;15667;52.376;9.708;2023-04-06T00:34:14;3.60;99.90
28438;DHT22;15667;52.376;9.708;2023-04-06T00:36:41;3.50;99.90
28438;DHT22;15667;52.376;9.708;2023-04-06T00:39:07;3.50;99.90
28438;DHT22;15667;52.376;9.708;2023-04-06T00:41:51;3.60;99.90
28438;DHT22;15667;52.376;9.708;2023-04-06T00:44:29;2.90;99.90
28438;DHT22;15667;52.376;9.708;2023-04-06T00:46:58;3.50;99.90
28438;DHT22;15667;52.376;9.708;2023-04-06T00:49:24;3.50;99.90
28438;DHT22;15667;52.376;9.708;2023-04-06T00:51:50;3.60;99.90
28438;DHT22;15667;52.376;9.708;2023-04-06T00:54:15;3.40;99.90
28438;DHT22;15667;52.376;9.708;2023-04-06T00:56:42;2.10;99.90
28438;DHT22;15667;52.376;9.708;2023-04-06T00:59:08;4.70;99.90
28438;DHT22;15667;52.376;9.708;2023-04-06T01:01:34;3.40;99.90
28438;DHT22;15667;52.376;9.708;2023-04-06T01:04:00;3.60;99.90
28438;DHT22;15667;52.376;9.708;2023-04-06T01:06:28;3.30;99.90
28438;DHT22;15667;52.376;9.708;2023-04-06T01:08:54;3.30;99.90
28438;DHT22;15667;52.376;9.708;2023-04-06T01:11:20;3.30;99.90
28438;DHT22;15667;52.376;9.708;2023-04-06T01:13:46;3.30;99.90
28438;DHT22;15667;52.376;9.708;2023-04-06T01:16:11;3.30;99.90
28438;DHT22;15667;52.376;9.708;2023-04-06T01:18:38;3.20;99.90
28438;DHT22;15667;52.376;9.708;2023-04-06T01:21:04;3.10;99.90
28438;DHT22;15667;52.376;9.708;2023-04-06T01:23:30;3.10;99.90
28438;DHT22;15667;52.376;9.708;2023-04-06T01:25:55;3.10;99.90
28438;DHT22;15667;52.376;9.708;2023-04-06T01:28:21;3.50;99.90
28438;DHT22;15667;52.376;9.708;2023-04-06T01:30:50;3.10;99.90
28438;DHT22;15667;52.376;9.708;2023-04-06T01:33:16;1.70;99.90
28438;DHT22;15667;52.376;9.708;2023-04-06T01:35:42;3.50;99.90
28438;DHT22;15667;52.376;9.708;2023-04-06T01:38:07;3.60;99.90
28438;DHT22;15667;52.376;9.708;2023-04-06T01:40:33;2.90;99.90
28438;DHT22;15667;52.376;9.708;2023-04-06T01:42:59;2.80;99.90
28438;DHT22;15667;52.376;9.708;2023-04-06T01:45:24;2.80;99.90
28438;DHT22;15667;52.376;9.708;2023-04-06T01:47:50;2.80;99.90
28438;DHT22;15667;52.376;9.708;2023-04-06T01:50:16;2.80;99.90
28438;DHT22;15667;52.376;9.708;2023-04-06T01:52:42;2.70;99.90
28438;DHT22;15667;52.376;9.708;2023-04-06T01:55:07;2.70;99.90
28438;DHT22;15667;52.376;9.708;2023-04-06T01:57:33;2.70;99.90
28438;DHT22;15667;52.376;9.708;2023-04-06T02:00:00;2.70;99.90
28438;DHT22;15667;52.376;9.708;2023-04-06T02:02:26;2.70;99.90
28438;DHT22;15667;52.376;9.708;2023-04-06T02:04:51;2.70;99.90
28438;DHT22;15667;52.376;9.708;2023-04-06T02:07:17;2.70;99.90
28438;DHT22;15667;52.376;9.708;2023-04-06T02:09:43;3.50;99.90
28438;DHT22;15667;52.376;9.708;2023-04-06T02:12:08;2.60;99.90
28438;DHT22;15667;52.376;9.708;2023-04-06T02:14:34;4.20;99.90
28438;DHT22;15667;52.376;9.708;2023-04-06T02:17:00;2.10;99.90
28438;DHT22;15667;52.376;9.708;2023-04-06T02:19:25;2.70;99.90
28438;DHT22;15667;52.376;9.708;2023-04-06T02:21:51;2.50;99.90
28438;DHT22;15667;52.376;9.708;2023-04-06T02:24:17;3.60;99.90
28438;DHT22;15667;52.376;9.708;2023-04-06T02:26:42;2.60;99.90
28438;DHT22;15667;52.376;9.708;2023-04-06T02:29:08;2.50;99.90
28438;DHT22;15667;52.376;9.708;2023-04-06T02:31:34;3.70;99.90
28438;DHT22;15667;52.376;9.708;2023-04-06T02:33:59;3.40;99.90
28438;DHT22;15667;52.376;9.708;2023-04-06T02:36:25;2.60;99.90
28438;DHT22;15667;52.376;9.708;2023-04-06T02:38:51;2.60;99.90
28438;DHT22;15667;52.376;9.708;2023-04-06T02:41:17;2.60;99.90
28438;DHT22;15667;52.376;9.708;2023-04-06T02:43:42;3.20;99.90
28438;DHT22;15667;52.376;9.708;2023-04-06T02:46:08;2.60;99.90
28438;DHT22;15667;52.376;9.708;2023-04-06T02:48:34;2.90;99.90
28438;DHT22;15667;52.376;9.708;2023-04-06T02:51:01;1.80;99.90
28438;DHT22;15667;52.376;9.708;2023-04-06T02:53:27;2.60;99.90
28438;DHT22;15667;52.376;9.708;2023-04-06T02:55:53;2.60;99.90
28438;DHT22;15667;52.376;9.708;2023-04-06T02:58:19;3.60;99.90
28438;DHT22;15667;52.376;9.708;2023-04-06T03:00:45;3.80;99.90
28438;DHT22;15667;52.376;9.708;2023-04-06T03:03:11;2.50;99.90
28438;DHT22;15667;52.376;9.708;2023-04-06T03:05:36;4.10;99.90
28438;DHT22;15667;52.376;9.708;2023-04-06T03:08:02;3.90;99.90
28438;DHT22;15667;52.376;9.708;2023-04-06T03:10:28;2.50;99.90
28438;DHT22;15667;52.376;9.708;2023-04-06T03:12:53;2.40;99.90
28438;DHT22;15667;52.376;9.708;2023-04-06T03:15:19;3.30;99.90
28438;DHT22;15667;52.376;9.708;2023-04-06T03:17:45;2.30;99.90
28438;DHT22;15667;52.376;9.708;2023-04-06T03:20:10;2.50;99.90
28438;DHT22;15667;52.376;9.708;2023-04-06T03:22:36;2.50;99.90
28438;DHT22;15667;52.376;9.708;2023-04-06T03:25:02;2.50;99.90
28438;DHT22;15667;52.376;9.708;2023-04-06T03:27:28;2.60;99.90
28438;DHT22;15667;52.376;9.708;2023-04-06T03:29:54;2.50;99.90
28438;DHT22;15667;52.376;9.708;2023-04-06T03:32:19;4.00;99.90
28438;DHT22;15667;52.376;9.708;2023-04-06T03:34:45;2.50;99.90
28438;DHT22;15667;52.376;9.708;2023-04-06T03:37:11;2.50;99.90
28438;DHT22;15667;52.376;9.708;2023-04-06T03:39:36;3.60;99.90
28438;DHT22;15667;52.376;9.708;2023-04-06T03:42:02;2.50;99.90
28438;DHT22;15667;52.376;9.708;2023-04-06T03:44:28;2.50;99.90
28438;DHT22;15667;52.376;9.708;2023-04-06T03:46:53;3.10;99.90
28438;DHT22;15667;52.376;9.708;2023-04-06T03:49:19;3.50;99.90
28438;DHT22;15667;52.376;9.708;2023-04-06T03:51:45;1.40;99.90
28438;DHT22;15667;52.376;9.708;2023-04-06T03:54:11;3.20;99.90
28438;DHT22;15667;52.376;9.708;2023-04-06T03:56:36;2.30;99.90
28438;DHT22;15667;52.376;9.708;2023-04-06T03:59:02;2.30;99.90
28438;DHT22;15667;52.376;9.708;2023-04-06T04:01:28;2.30;99.90
28438;DHT22;15667;52.376;9.708;2023-04-06T04:03:53;2.30;99.90
28438;DHT22;15667;52.376;9.708;2023-04-06T04:06:19;2.30;99.90
28438;DHT22;15667;52.376;9.708;2023-04-06T04:08:45;2.20;99.90
28438;DHT22;15667;52.376;9.708;2023-04-06T04:11:10;2.30;99.90
28438;DHT22;15667;52.376;9.708;2023-04-06T04:13:36;1.80;99.90
28438;DHT22;15667;52.376;9.708;2023-04-06T04:16:02;3.30;99.90
28438;DHT22;15667;52.376;9.708;2023-04-06T04:18:28;2.20;99.90
28438;DHT22;15667;52.376;9.708;2023-04-06T04:20:53;2.80;99.90
28438;DHT22;15667;52.376;9.708;2023-04-06T04:23:19;3.50;99.90
28438;DHT22;15667;52.376;9.708;2023-04-06T04:25:45;3.70;99.90
28438;DHT22;15667;52.376;9.708;2023-04-06T04:28:11;2.20;99.90
28438;DHT22;15667;52.376;9.708;2023-04-06T04:30:36;2.20;99.90
28438;DHT22;15667;52.376;9.708;2023-04-06T04:33:02;2.50;99.90
28438;DHT22;15667;52.376;9.708;2023-04-06T04:35:28;2.20;99.90
28438;DHT22;15667;52.376;9.708;2023-04-06T04:37:53;2.20;99.90
28438;DHT22;15667;52.376;9.708;2023-04-06T04:40:19;2.20;99.90
28438;DHT22;15667;52.376;9.708;2023-04-06T04:42:46;2.40;99.90
28438;DHT22;15667;52.376;9.708;2023-04-06T04:45:12;3.30;99.90
28438;DHT22;15667;52.376;9.708;2023-04-06T04:47:38;2.50;99.90
28438;DHT22;15667;52.376;9.708;2023-04-06T04:50:04;3.10;99.90
28438;DHT22;15667;52.376;9.708;2023-04-06T04:52:33;2.10;99.90
28438;DHT22;15667;52.376;9.708;2023-04-06T04:54:58;3.40;99.90
28438;DHT22;15667;52.376;9.708;2023-04-06T04:57:24;2.20;99.90
28438;DHT22;15667;52.376;9.708;2023-04-06T04:59:50;2.20;99.90
28438;DHT22;15667;52.376;9.708;2023-04-06T05:02:16;2.40;99.90
28438;DHT22;15667;52.376;9.708;2023-04-06T05:04:42;2.20;99.90
28438;DHT22;15667;52.376;9.708;2023-04-06T05:07:08;2.40;99.90
28438;DHT22;15667;52.376;9.708;2023-04-06T05:09:34;2.30;99.90
28438;DHT22;15667;52.376;9.708;2023-04-06T05:12:00;2.20;99.90
28438;DHT22;15667;52.376;9.708;2023-04-06T05:14:27;2.30;99.90
28438;DHT22;15667;52.376;9.708;2023-04-06T05:16:56;3.70;99.90
28438;DHT22;15667;52.376;9.708;2023-04-06T05:19:21;2.30;99.90
28438;DHT22;15667;52.376;9.708;2023-04-06T05:21:47;2.40;99.90
28438;DHT22;15667;52.376;9.708;2023-04-06T05:24:13;2.40;99.90
28438;DHT22;15667;52.376;9.708;2023-04-06T05:26:39;2.40;99.90
28438;DHT22;15667;52.376;9.708;2023-04-06T05:29:05;2.40;99.90
28438;DHT22;15667;52.376;9.708;2023-04-06T05:31:33;3.20;99.90
28438;DHT22;15667;52.376;9.708;2023-04-06T05:33:59;3.10;99.90
28438;DHT22;15667;52.376;9.708;2023-04-06T05:36:25;3.80;99.90
28438;DHT22;15667;52.376;9.708;2023-04-06T05:42:08;2.50;99.90
28438;DHT22;15667;52.376;9.708;2023-04-06T05:44:46;2.40;99.90
28438;DHT22;15667;52.376;9.708;2023-04-06T05:47:35;2.00;99.90
28438;DHT22;15667;52.376;9.708;2023-04-06T05:50:04;2.50;99.90
28438;DHT22;15667;52.376;9.708;2023-04-06T05:52:47;2.60;99.90
28438;DHT22;15667;52.376;9.708;2023-04-06T05:55:14;2.60;99.90
28438;DHT22;15667;52.376;9.708;2023-04-06T05:57:43;3.70;99.90
28438;DHT22;15667;52.376;9.708;2023-04-06T06:00:13;2.60;99.90
28438;DHT22;15667;52.376;9.708;2023-04-06T06:02:39;1.60;99.90
28438;DHT22;15667;52.376;9.708;2023-04-06T06:05:26;1.60;99.90
28438;DHT22;15667;52.376;9.708;2023-04-06T06:07:58;2.80;99.90
28438;DHT22;15667;52.376;9.708;2023-04-06T06:10:28;2.80;99.90
28438;DHT22;15667;52.376;9.708;2023-04-06T06:13:11;2.70;99.90
28438;DHT22;15667;52.376;9.708;2023-04-06T06:16:07;3.70;99.90
28438;DHT22;15667;52.376;9.708;2023-04-06T06:18:33;2.90;99.90
28438;DHT22;15667;52.376;9.708;2023-04-06T06:21:31;2.90;99.90
28438;DHT22;15667;52.376;9.708;2023-04-06T06:24:04;2.90;99.90
28438;DHT22;15667;52.376;9.708;2023-04-06T06:29:26;3.10;99.90
28438;DHT22;15667;52.376;9.708;2023-04-06T06:32:06;3.20;99.90
28438;DHT22;15667;52.376;9.708;2023-04-06T06:34:34;2.20;99.90
28438;DHT22;15667;52.376;9.708;2023-04-06T06:37:01;3.30;99.90
28438;DHT22;15667;52.376;9.708;2023-04-06T06:39:27;3.40;99.90
28438;DHT22;15667;52.376;9.708;2023-04-06T06:41:53;3.50;99.90
28438;DHT22;15667;52.376;9.708;2023-04-06T06:44:20;3.60;99.90
28438;DHT22;15667;52.376;9.708;2023-04-06T06:47:01;3.70;99.90
28438;DHT22;15667;52.376;9.708;2023-04-06T06:49:29;3.70;99.90
28438;DHT22;15667;52.376;9.708;2023-04-06T06:51:55;3.80;99.90
28438;DHT22;15667;52.376;9.708;2023-04-06T06:54:21;3.90;99.90
28438;DHT22;15667;52.376;9.708;2023-04-06T07:03:37;5.20;99.90
28438;DHT22;15667;52.376;9.708;2023-04-06T07:06:22;3.50;99.90
28438;DHT22;15667;52.376;9.708;2023-04-06T07:08:48;3.40;99.90
28438;DHT22;15667;52.376;9.708;2023-04-06T07:11:13;4.60;99.90
28438;DHT22;15667;52.376;9.708;2023-04-06T07:13:39;4.70;99.90
28438;DHT22;15667;52.376;9.708;2023-04-06T07:16:16;4.80;99.90
28438;DHT22;15667;52.376;9.708;2023-04-06T07:19:21;4.80;99.90
28438;DHT22;15667;52.376;9.708;2023-04-06T07:21:46;4.90;99.90
28438;DHT22;15667;52.376;9.708;2023-04-06T07:24:12;5.30;99.90
28438;DHT22;15667;52.376;9.708;2023-04-06T07:26:37;5.00;99.90
28438;DHT22;15667;52.376;9.708;2023-04-06T07:29:03;5.00;99.90
28438;DHT22;15667;52.376;9.708;2023-04-06T07:31:31;5.20;99.90
28438;DHT22;15667;52.376;9.708;2023-04-06T07:34:01;5.20;99.90
28438;DHT22;15667;52.376;9.708;2023-04-06T07:36:27;5.30;99.90
28438;DHT22;15667;52.376;9.708;2023-04-06T07:38:53;5.30;99.90
28438;DHT22;15667;52.376;9.708;2023-04-06T07:41:21;5.30;99.90
28438;DHT22;15667;52.376;9.708;2023-04-06T07:43:47;5.40;99.90
28438;DHT22;15667;52.376;9.708;2023-04-06T07:46:15;5.50;99.90
28438;DHT22;15667;52.376;9.708;2023-04-06T07:48:41;5.50;99.90
28438;DHT22;15667;52.376;9.708;2023-04-06T07:51:07;5.60;99.90
28438;DHT22;15667;52.376;9.708;2023-04-06T07:53:34;6.40;99.90
28438;DHT22;15667;52.376;9.708;2023-04-06T07:55:59;4.70;99.90
28438;DHT22;15667;52.376;9.708;2023-04-06T07:58:27;5.90;99.90
28438;DHT22;15667;52.376;9.708;2023-04-06T08:00:53;6.00;99.90
28438;DHT22;15667;52.376;9.708;2023-04-06T08:03:19;6.30;99.90
28438;DHT22;15667;52.376;9.708;2023-04-06T08:05:46;6.30;99.90
28438;DHT22;15667;52.376;9.708;2023-04-06T08:08:12;6.40;99.90
28438;DHT22;15667;52.376;9.708;2023-04-06T08:10:38;6.40;99.90
28438;DHT22;15667;52.376;9.708;2023-04-06T08:13:03;6.40;99.90
28438;DHT22;15667;52.376;9.708;2023-04-06T08:15:29;6.60;99.90
28438;DHT22;15667;52.376;9.708;2023-04-06T08:17:55;6.60;99.90
28438;DHT22;15667;52.376;9.708;2023-04-06T08:20:22;6.80;99.90
28438;DHT22;15667;52.376;9.708;2023-04-06T08:22:48;6.80;99.90
28438;DHT22;15667;52.376;9.708;2023-04-06T08:25:13;7.00;99.90
28438;DHT22;15667;52.376;9.708;2023-04-06T08:27:39;7.30;99.90
28438;DHT22;15667;52.376;9.708;2023-04-06T08:30:05;7.50;99.90
28438;DHT22;15667;52.376;9.708;2023-04-06T08:36:10;8.10;99.90
28438;DHT22;15667;52.376;9.708;2023-04-06T08:38:39;8.30;99.90
28438;DHT22;15667;52.376;9.708;2023-04-06T08:41:09;8.20;99.90
28438;DHT22;15667;52.376;9.708;2023-04-06T08:43:46;8.30;99.90
28438;DHT22;15667;52.376;9.708;2023-04-06T08:46:12;8.40;99.90
28438;DHT22;15667;52.376;9.708;2023-04-06T08:48:42;8.60;99.90
28438;DHT22;15667;52.376;9.708;2023-04-06T08:51:11;8.50;99.90
28438;DHT22;15667;52.376;9.708;2023-04-06T08:53:38;8.70;99.90
28438;DHT22;15667;52.376;9.708;2023-04-06T08:56:04;8.90;99.90
28438;DHT22;15667;52.376;9.708;2023-04-06T08:58:35;9.20;99.90
28438;DHT22;15667;52.376;9.708;2023-04-06T09:01:08;9.30;99.90
28438;DHT22;15667;52.376;9.708;2023-04-06T09:03:38;9.20;99.90
28438;DHT22;15667;52.376;9.708;2023-04-06T09:06:06;9.50;99.90
28438;DHT22;15667;52.376;9.708;2023-04-06T09:08:37;9.50;99.90
28438;DHT22;15667;52.376;9.708;2023-04-06T09:11:05;9.30;99.90
28438;DHT22;15667;52.376;9.708;2023-04-06T09:13:31;9.50;99.90
28438;DHT22;15667;52.376;9.708;2023-04-06T09:16:04;9.40;99.90
28438;DHT22;15667;52.376;9.708;2023-04-06T09:18:31;9.70;99.90
28438;DHT22;15667;52.376;9.708;2023-04-06T09:21:02;10.10;99.90
28438;DHT22;15667;52.376;9.708;2023-04-06T09:23:28;10.60;99.90
28438;DHT22;15667;52.376;9.708;2023-04-06T09:26:19;10.40;99.90
28438;DHT22;15667;52.376;9.708;2023-04-06T09:28:53;10.70;99.90
28438;DHT22;15667;52.376;9.708;2023-04-06T09:33:48;10.80;99.90
28438;DHT22;15667;52.376;9.708;2023-04-06T09:36:14;10.90;99.90
28438;DHT22;15667;52.376;9.708;2023-04-06T09:39:02;11.00;99.90
28438;DHT22;15667;52.376;9.708;2023-04-06T09:41:29;11.70;99.90
28438;DHT22;15667;52.376;9.708;2023-04-06T09:44:09;11.80;99.90
28438;DHT22;15667;52.376;9.708;2023-04-06T09:49:06;12.10;99.90
28438;DHT22;15667;52.376;9.708;2023-04-06T09:51:37;12.60;99.90
28438;DHT22;15667;52.376;9.708;2023-04-06T09:54:04;12.20;99.90
28438;DHT22;15667;52.376;9.708;2023-04-06T09:56:42;12.30;99.90
28438;DHT22;15667;52.376;9.708;2023-04-06T09:59:14;12.50;99.90
28438;DHT22;15667;52.376;9.708;2023-04-06T10:01:46;12.70;99.90
28438;DHT22;15667;52.376;9.708;2023-04-06T10:06:44;12.90;99.90
28438;DHT22;15667;52.376;9.708;2023-04-06T10:09:13;12.60;99.90
28438;DHT22;15667;52.376;9.708;2023-04-06T10:11:39;12.80;99.90
28438;DHT22;15667;52.376;9.708;2023-04-06T10:14:06;13.10;99.10
28438;DHT22;15667;52.376;9.708;2023-04-06T10:16:32;12.90;97.10
28438;DHT22;15667;52.376;9.708;2023-04-06T10:19:06;12.70;96.50
28438;DHT22;15667;52.376;9.708;2023-04-06T10:21:36;11.90;96.60
28438;DHT22;15667;52.376;9.708;2023-04-06T10:24:07;11.90;97.70
28438;DHT22;15667;52.376;9.708;2023-04-06T10:26:36;11.90;97.80
28438;DHT22;15667;52.376;9.708;2023-04-06T10:29:05;11.60;98.40
28438;DHT22;15667;52.376;9.708;2023-04-06T10:31:31;11.60;98.50
28438;DHT22;15667;52.376;9.708;2023-04-06T10:33:59;12.00;98.40
28438;DHT22;15667;52.376;9.708;2023-04-06T10:36:35;12.10;97.30
28438;DHT22;15667;52.376;9.708;2023-04-06T10:39:05;12.00;97.00
28438;DHT22;15667;52.376;9.708;2023-04-06T10:41:44;12.00;95.10
28438;DHT22;15667;52.376;9.708;2023-04-06T10:44:21;12.10;95.90
28438;DHT22;15667;52.376;9.708;2023-04-06T10:46:59;12.00;96.10
28438;DHT22;15667;52.376;9.708;2023-04-06T10:49:28;11.80;96.10
28438;DHT22;15667;52.376;9.708;2023-04-06T10:51:54;11.90;95.40
28438;DHT22;15667;52.376;9.708;2023-04-06T10:54:22;12.20;95.60
28438;DHT22;15667;52.376;9.708;2023-04-06T10:56:49;12.10;94.00
28438;DHT22;15667;52.376;9.708;2023-04-06T10:59:22;12.00;92.80
28438;DHT22;15667;52.376;9.708;2023-04-06T11:01:48;12.10;92.40
28438;DHT22;15667;52.376;9.708;2023-04-06T11:04:19;12.10;93.40
28438;DHT22;15667;52.376;9.708;2023-04-06T11:06:49;12.40;93.60
28438;DHT22;15667;52.376;9.708;2023-04-06T11:11:51;12.60;93.30
28438;DHT22;15667;52.376;9.708;2023-04-06T11:14:17;12.50;91.60
28438;DHT22;15667;52.376;9.708;2023-04-06T11:16:46;12.30;92.30
28438;DHT22;15667;52.376;9.708;2023-04-06T11:19:12;12.30;92.00
28438;DHT22;15667;52.376;9.708;2023-04-06T11:21:50;12.30;91.20
28438;DHT22;15667;52.376;9.708;2023-04-06T11:24:21;12.30;91.20
28438;DHT22;15667;52.376;9.708;2023-04-06T11:26:53;12.50;91.10
28438;DHT22;15667;52.376;9.708;2023-04-06T11:29:25;12.70;90.30
28438;DHT22;15667;52.376;9.708;2023-04-06T11:31:53;12.60;91.10
28438;DHT22;15667;52.376;9.708;2023-04-06T11:34:21;12.50;90.90
28438;DHT22;15667;52.376;9.708;2023-04-06T11:36:57;12.40;90.40
28438;DHT22;15667;52.376;9.708;2023-04-06T11:39:25;12.60;90.80
28438;DHT22;15667;52.376;9.708;2023-04-06T11:41:53;12.90;90.60
28438;DHT22;15667;52.376;9.708;2023-04-06T11:44:38;12.80;90.40
28438;DHT22;15667;52.376;9.708;2023-04-06T11:47:06;12.80;90.50
28438;DHT22;15667;52.376;9.708;2023-04-06T11:49:34;12.70;90.50
28438;DHT22;15667;52.376;9.708;2023-04-06T11:52:02;12.80;90.70
28438;DHT22;15667;52.376;9.708;2023-04-06T11:54:38;12.70;90.50
28438;DHT22;15667;52.376;9.708;2023-04-06T11:57:05;12.70;90.50
28438;DHT22;15667;52.376;9.708;2023-04-06T11:59:34;12.60;90.60
28438;DHT22;15667;52.376;9.708;2023-04-06T12:02:02;12.80;91.00
28438;DHT22;15667;52.376;9.708;2023-04-06T12:04:28;13.10;90.80
28438;DHT22;15667;52.376;9.708;2023-04-06T12:06:54;13.00;91.00
28438;DHT22;15667;52.376;9.708;2023-04-06T12:09:19;13.10;91.00
28438;DHT22;15667;52.376;9.708;2023-04-06T12:11:46;13.20;90.50
28438;DHT22;15667;52.376;9.708;2023-04-06T12:14:12;13.30;90.90
28438;DHT22;15667;52.376;9.708;2023-04-06T12:16:38;13.20;90.10
28438;DHT22;15667;52.376;9.708;2023-04-06T12:19:04;12.90;90.50
28438;DHT22;15667;52.376;9.708;2023-04-06T12:21:30;13.10;90.50
28438;DHT22;15667;52.376;9.708;2023-04-06T12:24:00;13.10;90.00
28438;DHT22;15667;52.376;9.708;2023-04-06T12:26:26;13.10;90.20
28438;DHT22;15667;52.376;9.708;2023-04-06T12:28:52;13.30;90.30
28438;DHT22;15667;52.376;9.708;2023-04-06T12:31:26;13.20;89.90
28438;DHT22;15667;52.376;9.708;2023-04-06T12:33:53;13.60;90.00
28438;DHT22;15667;52.376;9.708;2023-04-06T12:36:27;13.70;87.60
28438;DHT22;15667;52.376;9.708;2023-04-06T12:38:57;13.80;88.50
28438;DHT22;15667;52.376;9.708;2023-04-06T12:41:24;13.70;89.60
28438;DHT22;15667;52.376;9.708;2023-04-06T12:43:50;14.40;88.30
28438;DHT22;15667;52.376;9.708;2023-04-06T12:50:05;14.10;88.80
28438;DHT22;15667;52.376;9.708;2023-04-06T12:52:36;14.40;87.30
28438;DHT22;15667;52.376;9.708;2023-04-06T12:55:06;14.50;86.50
28438;DHT22;15667;52.376;9.708;2023-04-06T12:57:32;14.60;86.20
28438;DHT22;15667;52.376;9.708;2023-04-06T12:59:57;14.90;86.40
28438;DHT22;15667;52.376;9.708;2023-04-06T13:02:23;15.20;86.20
28438;DHT22;15667;52.376;9.708;2023-04-06T13:04:49;15.50;85.70
28438;DHT22;15667;52.376;9.708;2023-04-06T13:07:15;15.70;83.80
28438;DHT22;15667;52.376;9.708;2023-04-06T13:09:41;16.20;84.20
28438;DHT22;15667;52.376;9.708;2023-04-06T13:12:07;16.90;80.50
28438;DHT22;15667;52.376;9.708;2023-04-06T13:14:33;16.90;77.60
28438;DHT22;15667;52.376;9.708;2023-04-06T13:16:58;17.30;76.50
28438;DHT22;15667;52.376;9.708;2023-04-06T13:19:25;17.50;75.70
28438;DHT22;15667;52.376;9.708;2023-04-06T13:21:50;18.10;75.10
28438;DHT22;15667;52.376;9.708;2023-04-06T13:24:16;18.40;72.50
28438;DHT22;15667;52.376;9.708;2023-04-06T13:26:42;18.80;73.20
28438;DHT22;15667;52.376;9.708;2023-04-06T13:29:08;18.70;70.10
28438;DHT22;15667;52.376;9.708;2023-04-06T13:31:33;18.90;69.10
28438;DHT22;15667;52.376;9.708;2023-04-06T13:33:59;18.80;69.00
28438;DHT22;15667;52.376;9.708;2023-04-06T13:36:25;19.40;65.80
28438;DHT22;15667;52.376;9.708;2023-04-06T13:38:52;18.70;65.70
28438;DHT22;15667;52.376;9.708;2023-04-06T13:41:22;18.90;64.60
28438;DHT22;15667;52.376;9.708;2023-04-06T13:43:48;18.30;65.00
28438;DHT22;15667;52.376;9.708;2023-04-06T13:46:13;19.00;64.20
28438;DHT22;15667;52.376;9.708;2023-04-06T13:48:40;19.00;62.40
28438;DHT22;15667;52.376;9.708;2023-04-06T13:51:13;19.70;61.50
28438;DHT22;15667;52.376;9.708;2023-04-06T13:53:39;19.20;61.70
28438;DHT22;15667;52.376;9.708;2023-04-06T13:56:06;19.50;61.80
28438;DHT22;15667;52.376;9.708;2023-04-06T13:58:33;19.10;59.80
28438;DHT22;15667;52.376;9.708;2023-04-06T14:01:03;19.40;60.00
28438;DHT22;15667;52.376;9.708;2023-04-06T14:03:29;19.60;59.70
28438;DHT22;15667;52.376;9.708;2023-04-06T14:05:55;19.70;59.80
28438;DHT22;15667;52.376;9.708;2023-04-06T14:08:20;18.80;59.80
28438;DHT22;15667;52.376;9.708;2023-04-06T14:10:46;19.20;58.60
28438;DHT22;15667;52.376;9.708;2023-04-06T14:13:11;19.30;58.20
28438;DHT22;15667;52.376;9.708;2023-04-06T14:15:37;18.00;59.80
28438;DHT22;15667;52.376;9.708;2023-04-06T14:18:03;18.90;58.00
28438;DHT22;15667;52.376;9.708;2023-04-06T14:20:31;16.90;60.10
28438;DHT22;15667;52.376;9.708;2023-04-06T14:22:57;18.10;60.00
28438;DHT22;15667;52.376;9.708;2023-04-06T14:25:22;18.00;58.90
28438;DHT22;15667;52.376;9.708;2023-04-06T14:27:48;17.50;60.70
28438;DHT22;15667;52.376;9.708;2023-04-06T14:30:14;16.90;60.20
28438;DHT22;15667;52.376;9.708;2023-04-06T14:32:40;16.10;62.90
28438;DHT22;15667;52.376;9.708;2023-04-06T14:35:06;16.50;62.10
28438;DHT22;15667;52.376;9.708;2023-04-06T14:37:31;16.60;62.20
28438;DHT22;15667;52.376;9.708;2023-04-06T14:39:57;16.70;62.40
28438;DHT22;15667;52.376;9.708;2023-04-06T14:42:23;17.10;61.00
28438;DHT22;15667;52.376;9.708;2023-04-06T14:44:49;17.00;62.60
28438;DHT22;15667;52.376;9.708;2023-04-06T14:47:15;16.60;62.40
28438;DHT22;15667;52.376;9.708;2023-04-06T14:49:46;16.60;62.10
28438;DHT22;15667;52.376;9.708;2023-04-06T14:52:12;16.10;63.20
28438;DHT22;15667;52.376;9.708;2023-04-06T14:54:38;16.10;62.30
28438;DHT22;15667;52.376;9.708;2023-04-06T14:57:04;17.20;64.00
28438;DHT22;15667;52.376;9.708;2023-04-06T14:59:29;16.10;64.70
28438;DHT22;15667;52.376;9.708;2023-04-06T15:01:55;15.80;65.70
28438;DHT22;15667;52.376;9.708;2023-04-06T15:04:21;15.80;65.20
28438;DHT22;15667;52.376;9.708;2023-04-06T15:06:47;15.90;65.00
28438;DHT22;15667;52.376;9.708;2023-04-06T15:09:12;15.40;65.50
28438;DHT22;15667;52.376;9.708;2023-04-06T15:11:38;15.40;65.10
28438;DHT22;15667;52.376;9.708;2023-04-06T15:14:03;15.40;65.20
28438;DHT22;15667;52.376;9.708;2023-04-06T15:16:29;15.30;65.60
28438;DHT22;15667;52.376;9.708;2023-04-06T15:18:58;15.20;65.80
28438;DHT22;15667;52.376;9.708;2023-04-06T15:21:24;15.10;65.70
28438;DHT22;15667;52.376;9.708;2023-04-06T15:23:50;14.90;66.60
28438;DHT22;15667;52.376;9.708;2023-04-06T15:26:16;15.20;66.40
28438;DHT22;15667;52.376;9.708;2023-04-06T15:28:42;15.00;65.80
28438;DHT22;15667;52.376;9.708;2023-04-06T15:31:19;15.00;65.40
28438;DHT22;15667;52.376;9.708;2023-04-06T15:33:48;14.60;67.30
28438;DHT22;15667;52.376;9.708;2023-04-06T15:36:27;14.60;66.70
28438;DHT22;15667;52.376;9.708;2023-04-06T15:39:00;14.50;67.00
28438;DHT22;15667;52.376;9.708;2023-04-06T15:41:26;14.70;67.60
28438;DHT22;15667;52.376;9.708;2023-04-06T15:43:54;14.70;66.70
28438;DHT22;15667;52.376;9.708;2023-04-06T15:46:20;15.20;66.10
28438;DHT22;15667;52.376;9.708;2023-04-06T15:48:46;15.40;67.10
28438;DHT22;15667;52.376;9.708;2023-04-06T15:51:13;14.60;67.10
28438;DHT22;15667;52.376;9.708;2023-04-06T15:53:39;14.80;66.80
28438;DHT22;15667;52.376;9.708;2023-04-06T15:56:06;14.90;66.50
28438;DHT22;15667;52.376;9.708;2023-04-06T15:58:34;14.60;66.10
28438;DHT22;15667;52.376;9.708;2023-04-06T16:01:00;14.40;66.90
28438;DHT22;15667;52.376;9.708;2023-04-06T16:03:26;14.50;66.60
28438;DHT22;15667;52.376;9.708;2023-04-06T16:05:52;14.50;66.80
28438;DHT22;15667;52.376;9.708;2023-04-06T16:08:18;14.60;68.20
28438;DHT22;15667;52.376;9.708;2023-04-06T16:10:44;14.60;67.30
28438;DHT22;15667;52.376;9.708;2023-04-06T16:13:13;14.50;66.30